createdAt,value
2023-02-19T00:01:25.248Z,9.90
2023-02-19T00:03:52.863Z,9.90
2023-02-19T00:06:19.630Z,9.90
2023-02-19T00:08:46.373Z,9.80
2023-02-19T00:11:14.595Z,9.80
2023-02-19T00:13:42.099Z,9.80
2023-02-19T00:16:09.332Z,9.80
2023-02-19T00:18:36.151Z,9.80
2023-02-19T00:21:02.988Z,9.80
2023-02-19T00:23:29.969Z,9.70
2023-02-19T00:26:01.002Z,9.70
2023-02-19T00:28:29.870Z,9.70
2023-02-19T00:30:56.598Z,9.50
2023-02-19T00:33:23.244Z,9.80
2023-02-19T00:35:49.886Z,9.70
2023-02-19T00:38:16.661Z,9.90
2023-02-19T00:40:43.367Z,9.70
2023-02-19T00:43:10.052Z,9.80
2023-02-19T00:45:36.768Z,9.80
2023-02-19T00:48:03.488Z,9.80
2023-02-19T00:50:30.148Z,9.90
2023-02-19T00:52:56.787Z,9.80
2023-02-19T00:55:23.449Z,9.90
2023-02-19T00:57:50.233Z,9.80
2023-02-19T01:00:17.037Z,9.70
2023-02-19T01:02:43.748Z,9.70
2023-02-19T01:05:10.481Z,9.70
2023-02-19T01:07:37.331Z,9.50
2023-02-19T01:10:04.451Z,10.50
2023-02-19T01:12:31.436Z,9.60
2023-02-19T01:14:58.265Z,9.60
2023-02-19T01:17:24.857Z,9.60
2023-02-19T01:19:51.662Z,9.60
2023-02-19T01:22:18.296Z,9.50
2023-02-19T01:24:44.892Z,9.50
2023-02-19T01:27:11.505Z,9.50
2023-02-19T01:29:38.174Z,9.60
2023-02-19T01:32:04.907Z,9.50
2023-02-19T01:34:33.381Z,9.50
2023-02-19T01:37:00.113Z,9.60
2023-02-19T01:39:26.787Z,9.70
2023-02-19T01:41:53.608Z,9.70
2023-02-19T01:44:20.250Z,9.70
2023-02-19T01:46:48.516Z,9.70
2023-02-19T01:49:19.135Z,9.80
2023-02-19T01:51:48.228Z,9.70
2023-02-19T01:54:15.634Z,9.80
2023-02-19T01:56:42.715Z,9.70
2023-02-19T01:59:09.574Z,9.80
2023-02-19T02:01:37.535Z,9.70
2023-02-19T02:04:04.910Z,9.70
2023-02-19T02:06:31.827Z,9.90
2023-02-19T02:09:17.706Z,9.40
2023-02-19T02:11:45.803Z,9.40
2023-02-19T02:14:12.430Z,9.40
2023-02-19T02:16:43.196Z,9.40
2023-02-19T02:19:12.963Z,9.30
2023-02-19T02:22:05.935Z,9.30
2023-02-19T02:24:51.047Z,9.10
2023-02-19T02:27:41.291Z,9.20
2023-02-19T02:30:20.978Z,9.10
2023-02-19T02:32:53.983Z,9.10
2023-02-19T02:35:22.436Z,9.00
2023-02-19T02:37:49.144Z,9.00
2023-02-19T02:40:15.767Z,9.00
2023-02-19T02:42:42.806Z,8.90
2023-02-19T02:45:34.837Z,8.90
2023-02-19T02:48:20.107Z,8.80
2023-02-19T02:50:48.290Z,8.80
2023-02-19T02:53:35.119Z,8.80
2023-02-19T02:56:01.990Z,8.70
2023-02-19T02:58:28.621Z,8.70
2023-02-19T03:01:15.599Z,8.70
2023-02-19T03:03:43.266Z,8.70
2023-02-19T03:06:09.861Z,8.70
2023-02-19T03:08:45.143Z,8.70
2023-02-19T03:11:30.633Z,8.70
2023-02-19T03:14:25.708Z,8.70
2023-02-19T03:17:10.938Z,8.70
2023-02-19T03:19:38.327Z,8.70
2023-02-19T03:22:17.737Z,8.70
2023-02-19T03:25:04.414Z,8.70
2023-02-19T03:27:31.069Z,8.70
2023-02-19T03:29:58.321Z,8.70
2023-02-19T03:32:29.880Z,8.70
2023-02-19T03:35:04.932Z,9.40
2023-02-19T03:37:38.891Z,8.80
2023-02-19T03:40:05.865Z,8.80
2023-02-19T03:42:35.750Z,8.80
2023-02-19T03:45:09.437Z,8.90
2023-02-19T03:47:39.963Z,9.00
2023-02-19T03:50:18.172Z,8.80
2023-02-19T03:53:03.638Z,8.90
2023-02-19T03:55:32.301Z,8.90
2023-02-19T03:58:03.224Z,8.80
2023-02-19T04:00:40.694Z,8.70
2023-02-19T04:03:10.434Z,8.70
2023-02-19T04:05:41.525Z,8.70
2023-02-19T04:08:10.006Z,8.60
2023-02-19T04:10:36.875Z,8.60
2023-02-19T04:13:07.758Z,8.60
2023-02-19T04:15:34.445Z,8.60
2023-02-19T04:18:02.930Z,8.50
2023-02-19T04:20:30.164Z,8.50
2023-02-19T04:22:56.986Z,8.40
2023-02-19T04:25:23.721Z,8.50
2023-02-19T04:27:50.401Z,8.40
2023-02-19T04:30:17.094Z,8.40
2023-02-19T04:32:43.817Z,8.50
2023-02-19T04:35:10.437Z,8.50
2023-02-19T04:37:37.086Z,8.50
2023-02-19T04:40:03.857Z,8.60
2023-02-19T04:42:30.564Z,8.70
2023-02-19T04:44:57.174Z,8.70
2023-02-19T04:47:23.822Z,8.60
2023-02-19T04:49:50.505Z,8.90
2023-02-19T04:52:17.235Z,8.90
2023-02-19T04:54:43.964Z,8.90
2023-02-19T04:57:10.637Z,9.00
2023-02-19T04:59:37.312Z,8.90
2023-02-19T05:02:04.069Z,9.00
2023-02-19T05:04:30.852Z,9.00
2023-02-19T05:06:57.636Z,9.10
2023-02-19T05:09:24.332Z,9.10
2023-02-19T05:11:51.084Z,9.10
2023-02-19T05:14:17.726Z,9.20
2023-02-19T05:16:44.370Z,9.20
2023-02-19T05:19:11.533Z,8.90
2023-02-19T05:21:39.602Z,9.20
2023-02-19T05:24:06.607Z,9.20
2023-02-19T05:26:33.282Z,9.20
2023-02-19T05:28:59.982Z,9.20
2023-02-19T05:31:26.709Z,9.20
2023-02-19T05:33:55.651Z,9.20
2023-02-19T05:36:22.519Z,9.10
2023-02-19T05:38:52.092Z,9.10
2023-02-19T05:41:19.775Z,9.10
2023-02-19T05:43:46.663Z,9.00
2023-02-19T05:46:14.552Z,8.90
2023-02-19T05:48:41.332Z,8.90
2023-02-19T05:51:09.079Z,8.90
2023-02-19T05:53:36.069Z,8.80
2023-02-19T05:56:02.739Z,9.00
2023-02-19T05:58:29.464Z,8.80
2023-02-19T06:00:56.208Z,9.10
2023-02-19T06:03:22.850Z,8.80
2023-02-19T06:05:49.521Z,8.80
2023-02-19T06:08:16.248Z,8.80
2023-02-19T06:10:43.033Z,8.80
2023-02-19T06:13:09.953Z,8.70
2023-02-19T06:15:36.873Z,8.60
2023-02-19T06:18:03.757Z,8.60
2023-02-19T06:20:30.471Z,8.60
2023-02-19T06:22:57.181Z,8.50
2023-02-19T06:25:23.942Z,8.50
2023-02-19T06:27:50.622Z,8.50
2023-02-19T06:30:17.361Z,8.50
2023-02-19T06:32:44.059Z,9.80
2023-02-19T06:35:10.704Z,8.30
2023-02-19T06:37:37.333Z,8.30
2023-02-19T06:40:04.238Z,8.10
2023-02-19T06:42:34.038Z,8.20
2023-02-19T06:45:00.623Z,8.20
2023-02-19T06:47:29.253Z,8.20
2023-02-19T06:49:55.868Z,8.10
2023-02-19T06:52:22.516Z,8.10
2023-02-19T06:54:49.175Z,8.10
2023-02-19T06:57:15.766Z,8.80
2023-02-19T06:59:42.511Z,9.00
2023-02-19T07:02:10.529Z,8.00
2023-02-19T07:04:37.163Z,8.00
2023-02-19T07:07:03.883Z,8.00
2023-02-19T07:09:30.556Z,7.90
2023-02-19T07:11:57.229Z,8.00
2023-02-19T07:14:23.839Z,7.90
2023-02-19T07:16:51.144Z,8.50
2023-02-19T07:19:17.812Z,7.90
2023-02-19T07:21:44.536Z,7.90
2023-02-19T07:24:11.265Z,7.90
2023-02-19T07:26:38.050Z,8.00
2023-02-19T07:29:04.879Z,7.90
2023-02-19T07:31:31.589Z,8.00
2023-02-19T07:33:58.500Z,8.00
2023-02-19T07:36:25.830Z,8.00
2023-02-19T07:38:58.981Z,8.00
2023-02-19T07:41:25.946Z,8.10
2023-02-19T07:43:53.363Z,8.10
2023-02-19T07:46:20.161Z,8.10
2023-02-19T07:48:46.798Z,8.10
2023-02-19T07:51:15.066Z,8.20
2023-02-19T07:53:41.802Z,8.20
2023-02-19T07:56:08.485Z,8.20
2023-02-19T07:58:35.249Z,8.30
2023-02-19T08:01:09.315Z,8.30
2023-02-19T08:03:36.769Z,8.30
2023-02-19T08:06:03.618Z,8.30
2023-02-19T08:08:30.402Z,8.40
2023-02-19T08:11:18.469Z,8.00
2023-02-19T08:13:45.199Z,8.40
2023-02-19T08:16:20.182Z,8.40
2023-02-19T08:18:51.021Z,8.50
2023-02-19T08:21:21.130Z,8.50
2023-02-19T08:23:50.601Z,8.50
2023-02-19T08:26:17.635Z,8.50
2023-02-19T08:28:44.261Z,8.50
2023-02-19T08:31:11.418Z,8.60
2023-02-19T08:33:38.383Z,8.60
2023-02-19T08:36:05.544Z,8.60
2023-02-19T08:38:32.875Z,8.60
2023-02-19T08:40:59.614Z,8.60
2023-02-19T08:43:26.273Z,8.60
2023-02-19T08:45:53.274Z,8.60
2023-02-19T08:48:20.067Z,8.70
2023-02-19T08:50:52.950Z,8.70
2023-02-19T08:53:19.648Z,8.70
2023-02-19T08:55:46.368Z,8.70
2023-02-19T08:58:13.030Z,8.80
2023-02-19T09:00:39.665Z,8.80
2023-02-19T09:03:06.576Z,8.70
2023-02-19T09:05:33.213Z,8.80
2023-02-19T09:07:59.853Z,8.90
2023-02-19T09:10:26.634Z,8.80
2023-02-19T09:12:53.228Z,9.00
2023-02-19T09:15:19.884Z,9.00
2023-02-19T09:17:50.916Z,9.10
2023-02-19T09:20:17.562Z,9.10
2023-02-19T09:22:44.180Z,9.10
2023-02-19T09:25:10.835Z,9.10
2023-02-19T09:27:37.499Z,9.20
2023-02-19T09:30:04.714Z,9.20
2023-02-19T09:32:31.692Z,9.30
2023-02-19T09:34:58.343Z,9.40
2023-02-19T09:37:25.848Z,9.40
2023-02-19T09:39:52.502Z,9.50
2023-02-19T09:42:19.835Z,9.50
2023-02-19T09:44:48.303Z,9.60
2023-02-19T09:47:33.086Z,9.60
2023-02-19T09:50:00.978Z,9.70
2023-02-19T09:52:48.455Z,9.70
2023-02-19T09:55:16.600Z,9.80
2023-02-19T09:57:43.573Z,9.80
2023-02-19T10:00:19.083Z,9.80
2023-02-19T10:02:45.824Z,9.90
2023-02-19T10:05:12.925Z,9.90
2023-02-19T10:07:49.536Z,10.00
2023-02-19T10:10:16.157Z,10.00
2023-02-19T10:12:45.183Z,10.00
2023-02-19T10:15:12.408Z,10.00
2023-02-19T10:17:39.126Z,10.10
2023-02-19T10:20:06.080Z,10.10
2023-02-19T10:22:32.757Z,10.10
2023-02-19T10:24:59.465Z,10.10
2023-02-19T10:27:27.100Z,10.10
2023-02-19T10:29:53.726Z,10.20
2023-02-19T10:32:23.974Z,10.30
2023-02-19T10:35:10.221Z,10.40
2023-02-19T10:37:41.356Z,10.40
2023-02-19T10:40:12.718Z,10.40
2023-02-19T10:42:39.356Z,10.50
2023-02-19T10:45:06.420Z,10.40
2023-02-19T10:47:33.267Z,10.40
2023-02-19T10:50:00.534Z,10.40
2023-02-19T10:52:28.820Z,10.50
2023-02-19T10:54:56.508Z,10.60
2023-02-19T10:57:32.852Z,10.60
2023-02-19T11:00:01.835Z,10.90
2023-02-19T11:02:29.536Z,10.80
2023-02-19T11:05:03.928Z,10.90
2023-02-19T11:07:30.616Z,11.10
2023-02-19T11:09:57.500Z,11.30
2023-02-19T11:12:28.352Z,11.50
2023-02-19T11:14:55.026Z,11.60
2023-02-19T11:17:28.247Z,11.70
2023-02-19T11:20:04.590Z,11.80
2023-02-19T11:22:35.292Z,11.90
2023-02-19T11:25:06.033Z,11.90
2023-02-19T11:27:32.794Z,12.00
2023-02-19T11:30:18.423Z,12.00
2023-02-19T11:32:45.203Z,11.90
2023-02-19T11:35:17.610Z,12.00
2023-02-19T11:37:54.212Z,12.10
2023-02-19T11:40:21.847Z,12.10
2023-02-19T11:43:07.130Z,12.10
2023-02-19T11:45:43.735Z,12.20
2023-02-19T11:48:10.769Z,12.30
2023-02-19T11:50:48.835Z,12.40
2023-02-19T11:53:28.969Z,12.60
2023-02-19T11:56:08.026Z,12.90
2023-02-19T11:58:54.931Z,13.30
2023-02-19T12:01:40.161Z,13.70
2023-02-19T12:04:25.692Z,13.90
2023-02-19T12:07:00.198Z,14.30
2023-02-19T12:09:30.673Z,14.60
2023-02-19T12:11:59.466Z,14.80
2023-02-19T12:14:45.083Z,15.00
2023-02-19T12:17:30.209Z,15.30
2023-02-19T12:20:35.542Z,15.50
2023-02-19T12:23:07.893Z,15.50
2023-02-19T12:25:52.943Z,15.40
2023-02-19T12:28:52.007Z,15.30
2023-02-19T12:31:18.816Z,15.10
2023-02-19T12:33:45.588Z,14.90
2023-02-19T12:36:32.558Z,14.70
2023-02-19T12:39:05.502Z,14.50
2023-02-19T12:41:42.168Z,14.30
2023-02-19T12:44:13.853Z,14.40
2023-02-19T12:46:42.472Z,14.40
2023-02-19T12:49:13.604Z,14.60
2023-02-19T12:51:50.040Z,14.80
2023-02-19T12:54:21.859Z,14.90
2023-02-19T12:56:54.235Z,14.90
2023-02-19T12:59:20.957Z,14.90
2023-02-19T13:01:59.832Z,14.80
2023-02-19T13:04:26.527Z,14.70
2023-02-19T13:06:56.017Z,14.70
2023-02-19T13:09:36.993Z,14.60
2023-02-19T13:12:05.803Z,14.60
2023-02-19T13:14:37.231Z,14.50
2023-02-19T13:17:22.768Z,14.30
2023-02-19T13:19:50.278Z,14.30
2023-02-19T13:22:58.852Z,14.20
2023-02-19T13:25:28.174Z,14.20
2023-02-19T13:27:56.821Z,14.20
2023-02-19T13:30:41.254Z,14.20
2023-02-19T13:33:22.555Z,14.20
2023-02-19T13:36:08.394Z,14.20
2023-02-19T13:38:42.553Z,14.10
2023-02-19T13:41:33.766Z,14.10
2023-02-19T13:44:04.477Z,14.30
2023-02-19T13:46:34.922Z,14.00
2023-02-19T13:49:20.728Z,14.00
2023-02-19T13:51:49.263Z,13.90
2023-02-19T13:54:26.677Z,13.90
2023-02-19T13:57:14.432Z,13.90
2023-02-19T13:59:41.572Z,13.80
2023-02-19T14:02:22.107Z,13.80
2023-02-19T14:04:51.121Z,13.70
2023-02-19T14:07:17.868Z,13.70
2023-02-19T14:09:47.658Z,13.60
2023-02-19T14:12:15.869Z,13.50
2023-02-19T14:14:43.077Z,13.50
2023-02-19T14:17:09.827Z,13.50
2023-02-19T14:19:36.513Z,13.60
2023-02-19T14:22:08.063Z,13.60
2023-02-19T14:24:34.772Z,13.60
2023-02-19T14:27:01.442Z,13.70
2023-02-19T14:29:28.097Z,13.80
2023-02-19T14:31:54.893Z,13.90
2023-02-19T14:34:23.537Z,14.00
2023-02-19T14:36:53.807Z,14.10
2023-02-19T14:39:22.449Z,14.20
2023-02-19T14:41:50.563Z,14.20
2023-02-19T14:44:18.613Z,14.20
2023-02-19T14:46:46.438Z,14.10
2023-02-19T14:49:17.389Z,14.10
2023-02-19T14:51:44.586Z,14.10
2023-02-19T14:54:31.699Z,14.00
2023-02-19T14:56:58.541Z,14.00
2023-02-19T14:59:25.429Z,13.90
2023-02-19T15:02:02.646Z,13.90
2023-02-19T15:04:31.552Z,13.80
2023-02-19T15:07:02.898Z,13.80
2023-02-19T15:09:30.884Z,13.80
2023-02-19T15:11:57.917Z,13.80
2023-02-19T15:14:24.724Z,13.90
2023-02-19T15:16:53.742Z,13.90
2023-02-19T15:19:20.430Z,14.00
2023-02-19T15:21:48.047Z,14.30
2023-02-19T15:24:15.629Z,14.60
2023-02-19T15:26:43.420Z,14.90
2023-02-19T15:29:11.433Z,15.20
2023-02-19T15:31:44.630Z,15.50
2023-02-19T15:34:25.907Z,15.70
2023-02-19T15:36:57.382Z,16.00
2023-02-19T15:39:33.194Z,16.10
2023-02-19T15:42:00.676Z,16.30
2023-02-19T15:44:35.828Z,16.50
2023-02-19T15:47:05.151Z,16.60
2023-02-19T15:49:39.638Z,16.60
2023-02-19T15:52:08.250Z,16.70
2023-02-19T15:54:41.678Z,16.80
2023-02-19T15:57:10.019Z,16.90
2023-02-19T15:59:40.931Z,16.90
2023-02-19T16:02:11.996Z,16.70
2023-02-19T16:04:38.740Z,16.60
2023-02-19T16:07:05.638Z,16.40
2023-02-19T16:09:38.861Z,16.30
2023-02-19T16:12:27.404Z,16.10
2023-02-19T16:14:54.070Z,16.00
2023-02-19T16:17:23.036Z,15.80
2023-02-19T16:19:53.501Z,15.70
2023-02-19T16:22:21.337Z,15.50
2023-02-19T16:25:00.326Z,15.40
2023-02-19T16:27:31.296Z,15.20
2023-02-19T16:29:58.076Z,15.00
2023-02-19T16:32:25.075Z,14.90
2023-02-19T16:34:52.069Z,14.70
2023-02-19T16:37:31.603Z,14.50
2023-02-19T16:40:07.467Z,14.40
2023-02-19T16:42:34.647Z,14.30
2023-02-19T16:45:01.417Z,14.10
2023-02-19T16:47:31.652Z,14.10
2023-02-19T16:49:59.332Z,14.00
2023-02-19T16:52:26.164Z,13.80
2023-02-19T16:54:53.192Z,13.80
2023-02-19T16:57:20.674Z,13.70
2023-02-19T16:59:47.703Z,13.60
2023-02-19T17:02:19.563Z,13.50
2023-02-19T17:04:49.517Z,13.40
2023-02-19T17:07:16.508Z,13.30
2023-02-19T17:09:46.346Z,13.20
2023-02-19T17:12:13.800Z,13.10
2023-02-19T17:14:40.685Z,13.00
2023-02-19T17:17:07.608Z,13.00
2023-02-19T17:19:34.352Z,12.90
2023-02-19T17:22:01.061Z,12.80
2023-02-19T17:24:27.828Z,12.70
2023-02-19T17:26:54.647Z,12.60
2023-02-19T17:29:21.439Z,12.60
2023-02-19T17:31:48.209Z,12.50
2023-02-19T17:34:20.129Z,12.40
2023-02-19T17:36:56.699Z,12.40
2023-02-19T17:39:23.432Z,12.30
2023-02-19T17:41:50.447Z,12.30
2023-02-19T17:44:17.521Z,12.20
2023-02-19T17:46:45.671Z,12.10
2023-02-19T17:49:15.362Z,12.00
2023-02-19T17:51:42.234Z,11.90
2023-02-19T17:54:09.525Z,11.90
2023-02-19T17:56:36.463Z,11.80
2023-02-19T17:59:03.389Z,11.80
2023-02-19T18:01:30.159Z,11.70
2023-02-19T18:03:57.227Z,11.70
2023-02-19T18:06:24.266Z,11.70
2023-02-19T18:08:51.487Z,11.60
2023-02-19T18:11:18.603Z,11.50
2023-02-19T18:13:45.461Z,11.50
2023-02-19T18:16:12.272Z,11.40
2023-02-19T18:18:38.973Z,11.30
2023-02-19T18:21:07.887Z,11.30
2023-02-19T18:23:34.584Z,11.20
2023-02-19T18:26:01.346Z,11.20
2023-02-19T18:28:28.051Z,11.20
2023-02-19T18:30:54.931Z,11.20
2023-02-19T18:33:22.180Z,11.20
2023-02-19T18:35:50.298Z,11.20
2023-02-19T18:38:17.044Z,11.20
2023-02-19T18:40:43.998Z,11.10
2023-02-19T18:43:10.954Z,11.10
2023-02-19T18:45:37.840Z,11.00
2023-02-19T18:48:05.032Z,10.90
2023-02-19T18:50:32.022Z,10.90
2023-02-19T18:52:58.816Z,10.80
2023-02-19T18:55:25.517Z,10.80
2023-02-19T18:57:52.231Z,10.70
2023-02-19T19:00:20.142Z,10.70
2023-02-19T19:02:49.703Z,10.60
2023-02-19T19:05:20.957Z,10.50
2023-02-19T19:07:47.799Z,10.60
2023-02-19T19:10:14.801Z,10.50
2023-02-19T19:12:41.463Z,10.50
2023-02-19T19:15:08.380Z,10.40
2023-02-19T19:17:35.173Z,10.30
2023-02-19T19:20:02.123Z,10.30
2023-02-19T19:22:28.907Z,10.30
2023-02-19T19:24:55.624Z,10.20
2023-02-19T19:27:22.373Z,10.20
2023-02-19T19:29:49.700Z,10.10
2023-02-19T19:32:16.582Z,10.10
2023-02-19T19:34:43.400Z,10.10
2023-02-19T19:37:12.237Z,10.10
2023-02-19T19:39:38.992Z,10.10
2023-02-19T19:42:09.096Z,10.00
2023-02-19T19:44:35.781Z,10.00
2023-02-19T19:47:02.604Z,9.90
2023-02-19T19:49:29.598Z,9.90
2023-02-19T19:52:00.990Z,9.90
2023-02-19T19:54:28.148Z,9.90
2023-02-19T19:56:55.437Z,9.80
2023-02-19T19:59:23.300Z,9.80
2023-02-19T20:01:53.048Z,9.80
2023-02-19T20:04:20.430Z,9.70
2023-02-19T20:06:47.303Z,9.60
2023-02-19T20:09:17.400Z,9.60
2023-02-19T20:11:45.163Z,9.50
2023-02-19T20:14:12.047Z,9.50
2023-02-19T20:16:39.122Z,9.40
2023-02-19T20:19:06.149Z,9.30
2023-02-19T20:21:32.924Z,9.30
2023-02-19T20:23:59.728Z,9.20
2023-02-19T20:26:27.068Z,9.20
2023-02-19T20:28:53.921Z,9.20
2023-02-19T20:31:20.997Z,9.10
2023-02-19T20:33:50.118Z,9.30
2023-02-19T20:36:17.243Z,9.10
2023-02-19T20:38:44.204Z,9.10
2023-02-19T20:41:11.505Z,9.10
2023-02-19T20:43:38.396Z,9.10
2023-02-19T20:46:05.281Z,9.00
2023-02-19T20:48:32.127Z,9.00
2023-02-19T20:51:01.595Z,8.90
2023-02-19T20:53:28.700Z,9.10
2023-02-19T20:55:56.166Z,9.00
2023-02-19T20:58:23.182Z,9.00
2023-02-19T21:00:49.990Z,9.00
2023-02-19T21:03:16.906Z,8.90
2023-02-19T21:05:43.835Z,9.00
2023-02-19T21:08:11.868Z,9.00
2023-02-19T21:10:38.934Z,8.90
2023-02-19T21:13:05.756Z,8.60
2023-02-19T21:15:32.527Z,9.00
2023-02-19T21:17:59.397Z,9.00
2023-02-19T21:20:26.073Z,9.00
2023-02-19T21:23:02.697Z,9.00
2023-02-19T21:25:31.456Z,8.90
2023-02-19T21:27:58.349Z,8.90
2023-02-19T21:30:25.554Z,8.90
2023-02-19T21:32:52.437Z,8.90
2023-02-19T21:35:19.089Z,8.80
2023-02-19T21:37:45.801Z,8.80
2023-02-19T21:40:12.711Z,9.00
2023-02-19T21:42:39.366Z,8.80
2023-02-19T21:45:06.466Z,8.80
2023-02-19T21:47:33.140Z,8.80
2023-02-19T21:49:59.924Z,8.70
2023-02-19T21:52:27.130Z,8.70
2023-02-19T21:54:57.428Z,8.80
2023-02-19T21:57:30.185Z,8.70
2023-02-19T21:59:57.201Z,8.80
2023-02-19T22:02:24.353Z,8.70
2023-02-19T22:04:53.792Z,8.60
2023-02-19T22:07:21.320Z,8.60
2023-02-19T22:09:48.625Z,8.60
2023-02-19T22:12:15.420Z,8.60
2023-02-19T22:14:42.088Z,8.50
2023-02-19T22:17:08.943Z,8.50
2023-02-19T22:19:35.771Z,8.50
2023-02-19T22:22:02.567Z,8.40
2023-02-19T22:24:29.331Z,8.30
2023-02-19T22:26:58.979Z,8.30
2023-02-19T22:29:25.684Z,8.30
2023-02-19T22:31:52.972Z,8.30
2023-02-19T22:34:19.757Z,8.20
2023-02-19T22:36:46.727Z,8.20
2023-02-19T22:39:18.116Z,8.20
2023-02-19T22:41:44.881Z,8.20
2023-02-19T22:44:11.548Z,8.10
2023-02-19T22:46:38.250Z,8.10
2023-02-19T22:49:08.001Z,8.10
2023-02-19T22:51:37.404Z,8.10
2023-02-19T22:54:14.198Z,8.00
2023-02-19T22:56:40.967Z,8.00
2023-02-19T22:59:07.646Z,8.00
2023-02-19T23:01:34.363Z,7.90
2023-02-19T23:04:01.343Z,7.90
2023-02-19T23:06:31.094Z,7.90
2023-02-19T23:08:59.375Z,7.80
2023-02-19T23:11:27.046Z,7.80
2023-02-19T23:13:54.080Z,7.80
2023-02-19T23:16:24.015Z,7.80
2023-02-19T23:18:51.286Z,7.70
2023-02-19T23:21:18.390Z,7.70
2023-02-19T23:23:46.526Z,7.70
2023-02-19T23:26:13.741Z,7.70
2023-02-19T23:28:40.956Z,7.70
2023-02-19T23:31:07.890Z,7.60
2023-02-19T23:33:34.609Z,7.60
2023-02-19T23:36:01.323Z,7.60
2023-02-19T23:38:28.156Z,7.60
2023-02-19T23:40:54.870Z,7.50
2023-02-19T23:43:21.667Z,7.50
2023-02-19T23:45:48.398Z,7.80
2023-02-19T23:48:15.186Z,7.50
2023-02-19T23:50:41.957Z,7.40
2023-02-19T23:53:08.995Z,7.40
2023-02-19T23:55:35.724Z,7.40
2023-02-19T23:58:02.471Z,7.30
